createdAt,value
2022-10-31T00:00:27.869Z,8.11
2022-10-31T00:03:14.245Z,8.06
2022-10-31T00:05:42.889Z,8.04
2022-10-31T00:08:09.201Z,8.03
2022-10-31T00:10:38.431Z,8.00
2022-10-31T00:13:04.861Z,7.97
2022-10-31T00:15:33.816Z,7.95
2022-10-31T00:18:00.424Z,7.95
2022-10-31T00:20:26.908Z,8.00
2022-10-31T00:22:53.373Z,8.06
2022-10-31T00:25:20.848Z,8.10
2022-10-31T00:27:47.144Z,8.06
2022-10-31T00:30:13.733Z,8.01
2022-10-31T00:32:40.896Z,7.95
2022-10-31T00:35:07.489Z,7.92
2022-10-31T00:37:33.704Z,7.89
2022-10-31T00:40:00.035Z,7.93
2022-10-31T00:42:26.327Z,7.96
2022-10-31T00:44:52.701Z,8.04
2022-10-31T00:47:20.014Z,8.05
2022-10-31T00:49:46.480Z,7.98
2022-10-31T00:52:12.821Z,7.89
2022-10-31T00:54:39.184Z,7.83
2022-10-31T00:57:05.421Z,7.75
2022-10-31T00:59:31.649Z,7.67
2022-10-31T01:01:58.010Z,7.63
2022-10-31T01:04:24.678Z,7.61
2022-10-31T01:06:50.961Z,7.64
2022-10-31T01:09:17.240Z,7.64
2022-10-31T01:11:43.575Z,7.61
2022-10-31T01:14:10.251Z,7.58
2022-10-31T01:16:36.601Z,7.55
2022-10-31T01:19:03.310Z,7.57
2022-10-31T01:21:30.031Z,7.63
2022-10-31T01:23:59.672Z,7.66
2022-10-31T01:26:28.495Z,7.65
2022-10-31T01:29:09.286Z,7.64
2022-10-31T01:31:38.705Z,7.64
2022-10-31T01:34:06.863Z,7.61
2022-10-31T01:36:35.657Z,7.58
2022-10-31T01:39:07.895Z,7.55
2022-10-31T01:41:38.192Z,7.53
2022-10-31T01:44:13.761Z,7.52
2022-10-31T01:46:42.931Z,7.52
2022-10-31T01:49:18.914Z,7.52
2022-10-31T01:51:56.698Z,7.51
2022-10-31T01:54:27.165Z,7.49
2022-10-31T01:56:56.699Z,7.48
2022-10-31T01:59:25.735Z,7.49
2022-10-31T02:01:52.893Z,7.45
2022-10-31T02:04:21.996Z,7.29
2022-10-31T02:06:55.309Z,7.26
2022-10-31T02:09:24.353Z,7.24
2022-10-31T02:11:57.550Z,7.16
2022-10-31T02:14:29.729Z,7.08
2022-10-31T02:16:56.564Z,7.00
2022-10-31T02:20:09.661Z,6.93
2022-10-31T02:23:23.337Z,6.83
2022-10-31T02:26:08.031Z,6.77
2022-10-31T02:28:34.375Z,6.81
2022-10-31T02:31:12.770Z,6.85
2022-10-31T02:33:52.592Z,6.92
2022-10-31T02:36:28.896Z,6.96
2022-10-31T02:39:02.455Z,6.94
2022-10-31T02:41:52.906Z,6.94
2022-10-31T02:44:29.822Z,6.85
2022-10-31T02:47:14.643Z,6.82
2022-10-31T02:49:54.461Z,6.76
2022-10-31T02:52:24.012Z,6.75
2022-10-31T02:54:52.302Z,6.78
2022-10-31T02:57:26.110Z,6.82
2022-10-31T03:00:00.693Z,6.83
2022-10-31T03:02:33.376Z,6.80
2022-10-31T03:05:18.012Z,6.76
2022-10-31T03:08:05.076Z,6.80
2022-10-31T03:11:06.846Z,6.87
2022-10-31T03:13:41.404Z,6.92
2022-10-31T03:16:07.839Z,6.90
2022-10-31T03:18:40.323Z,6.83
2022-10-31T03:21:37.836Z,6.81
2022-10-31T03:24:07.030Z,6.85
2022-10-31T03:26:38.680Z,6.92
2022-10-31T03:29:11.401Z,6.96
2022-10-31T03:31:57.567Z,7.03
2022-10-31T03:34:24.280Z,7.01
2022-10-31T03:36:55.336Z,6.96
2022-10-31T03:39:23.762Z,6.95
2022-10-31T03:41:56.697Z,6.93
2022-10-31T03:44:25.625Z,6.89
2022-10-31T03:46:58.118Z,6.96
2022-10-31T03:49:24.733Z,6.95
2022-10-31T03:51:56.789Z,6.86
2022-10-31T03:54:30.461Z,6.73
2022-10-31T03:57:05.784Z,6.65
2022-10-31T04:00:02.096Z,6.59
2022-10-31T04:02:33.161Z,6.56
2022-10-31T04:05:01.698Z,6.55
2022-10-31T04:07:32.863Z,6.60
2022-10-31T04:10:04.766Z,6.61
2022-10-31T04:12:33.111Z,6.58
2022-10-31T04:15:30.629Z,6.65
2022-10-31T04:17:59.974Z,6.66
2022-10-31T04:20:35.609Z,6.63
2022-10-31T04:23:03.106Z,6.63
2022-10-31T04:25:30.766Z,6.61
2022-10-31T04:27:58.216Z,6.60
2022-10-31T04:30:24.797Z,6.66
2022-10-31T04:32:51.057Z,6.69
2022-10-31T04:35:17.690Z,6.75
2022-10-31T04:37:44.041Z,6.89
2022-10-31T04:40:10.994Z,7.02
2022-10-31T04:42:55.154Z,7.17
2022-10-31T04:45:21.783Z,7.35
2022-10-31T04:47:50.751Z,7.49
2022-10-31T04:50:17.178Z,7.61
2022-10-31T04:52:45.758Z,7.69
2022-10-31T04:55:14.466Z,7.73
2022-10-31T04:57:59.796Z,7.74
2022-10-31T05:00:26.868Z,7.70
2022-10-31T05:02:55.702Z,7.63
2022-10-31T05:05:29.351Z,7.59
2022-10-31T05:07:55.766Z,7.57
2022-10-31T05:10:27.695Z,7.52
2022-10-31T05:12:57.147Z,7.54
2022-10-31T05:15:46.837Z,7.57
2022-10-31T05:18:42.253Z,7.48
2022-10-31T05:21:20.349Z,7.46
2022-10-31T05:23:55.281Z,7.43
2022-10-31T05:26:23.657Z,7.42
2022-10-31T05:28:50.941Z,7.42
2022-10-31T05:31:17.275Z,7.39
2022-10-31T05:33:43.606Z,7.37
2022-10-31T05:36:28.137Z,7.23
2022-10-31T05:38:59.296Z,7.16
2022-10-31T05:41:33.655Z,7.12
2022-10-31T05:44:10.002Z,7.12
2022-10-31T05:46:48.297Z,7.13
2022-10-31T05:49:43.190Z,7.15
2022-10-31T05:52:25.534Z,7.15
2022-10-31T05:54:58.197Z,7.20
2022-10-31T05:57:24.777Z,7.24
2022-10-31T05:59:55.073Z,7.24
2022-10-31T06:02:22.073Z,7.24
2022-10-31T06:05:10.834Z,7.23
2022-10-31T06:07:37.154Z,7.25
2022-10-31T06:10:05.847Z,7.29
2022-10-31T06:12:32.411Z,7.38
2022-10-31T06:15:11.716Z,7.46
2022-10-31T06:17:37.956Z,7.57
2022-10-31T06:20:21.764Z,7.68
2022-10-31T06:22:55.910Z,7.79
2022-10-31T06:25:22.629Z,7.90
2022-10-31T06:27:49.676Z,8.01
2022-10-31T06:30:16.285Z,8.11
2022-10-31T06:32:44.927Z,8.21
2022-10-31T06:35:11.367Z,8.33
2022-10-31T06:37:39.542Z,8.44
2022-10-31T06:40:24.204Z,8.54
2022-10-31T06:43:07.762Z,8.62
2022-10-31T06:45:34.757Z,8.68
2022-10-31T06:48:17.664Z,8.76
2022-10-31T06:51:20.047Z,8.87
2022-10-31T06:53:47.241Z,8.98
2022-10-31T06:56:13.826Z,9.06
2022-10-31T06:58:44.592Z,9.12
2022-10-31T07:01:11.285Z,9.19
2022-10-31T07:03:37.571Z,9.27
2022-10-31T07:06:04.014Z,9.30
2022-10-31T07:08:32.089Z,9.35
2022-10-31T07:10:58.487Z,9.35
2022-10-31T07:13:25.932Z,9.37
2022-10-31T07:16:01.470Z,9.45
2022-10-31T07:18:28.235Z,9.50
2022-10-31T07:20:54.492Z,9.57
2022-10-31T07:23:21.183Z,9.63
2022-10-31T07:25:59.441Z,9.70
2022-10-31T07:28:31.733Z,9.79
2022-10-31T07:30:59.225Z,9.88
2022-10-31T07:33:26.620Z,9.95
2022-10-31T07:36:18.875Z,10.06
2022-10-31T07:38:45.271Z,10.19
2022-10-31T07:41:11.580Z,10.27
2022-10-31T07:43:41.500Z,10.39
2022-10-31T07:46:16.833Z,10.53
2022-10-31T07:49:01.972Z,10.67
2022-10-31T07:51:47.358Z,10.87
2022-10-31T07:54:45.888Z,11.05
2022-10-31T07:57:12.164Z,11.23
2022-10-31T07:59:38.604Z,11.32
2022-10-31T08:02:05.423Z,11.33
2022-10-31T08:04:31.768Z,11.40
2022-10-31T08:07:17.396Z,11.56
2022-10-31T08:09:48.347Z,11.68
2022-10-31T08:12:19.828Z,11.86
2022-10-31T08:14:46.494Z,12.10
2022-10-31T08:17:13.646Z,12.35
2022-10-31T08:19:45.789Z,12.47
2022-10-31T08:22:13.854Z,12.52
2022-10-31T08:27:06.332Z,12.55
2022-10-31T08:29:32.662Z,12.55
2022-10-31T08:31:59.241Z,12.59
2022-10-31T08:34:43.964Z,12.65
2022-10-31T08:37:28.623Z,12.67
2022-10-31T08:39:55.404Z,12.72
2022-10-31T08:42:21.917Z,12.78
2022-10-31T08:44:48.415Z,12.94
2022-10-31T08:47:14.815Z,13.04
2022-10-31T08:49:41.340Z,13.08
2022-10-31T08:52:12.035Z,13.19
2022-10-31T08:54:40.825Z,13.27
2022-10-31T08:57:33.481Z,13.39
2022-10-31T08:59:59.775Z,13.56
2022-10-31T09:02:46.232Z,13.58
2022-10-31T09:05:13.592Z,13.54
2022-10-31T09:07:39.863Z,13.61
2022-10-31T09:10:06.589Z,13.66
2022-10-31T09:12:35.100Z,13.68
2022-10-31T09:15:19.972Z,13.67
2022-10-31T09:17:55.936Z,13.73
2022-10-31T09:20:39.830Z,13.85
2022-10-31T09:23:08.897Z,14.09
2022-10-31T09:25:38.374Z,14.45
2022-10-31T09:28:32.812Z,14.68
2022-10-31T09:31:04.245Z,14.80
2022-10-31T09:33:48.924Z,14.83
2022-10-31T09:36:36.638Z,14.76
2022-10-31T09:39:03.697Z,14.61
2022-10-31T09:42:01.918Z,14.51
2022-10-31T09:44:44.751Z,14.47
2022-10-31T09:47:27.185Z,14.48
2022-10-31T09:50:48.576Z,14.56
2022-10-31T09:53:53.201Z,14.55
2022-10-31T09:56:23.148Z,14.46
2022-10-31T09:58:58.498Z,14.37
2022-10-31T10:02:06.672Z,14.24
2022-10-31T10:04:59.815Z,14.16
2022-10-31T10:07:33.277Z,14.13
2022-10-31T10:10:50.904Z,14.03
2022-10-31T10:13:32.130Z,14.02
2022-10-31T10:16:26.270Z,13.99
2022-10-31T10:19:14.560Z,13.94
2022-10-31T10:21:55.916Z,13.90
2022-10-31T10:24:33.986Z,13.89
2022-10-31T10:27:07.151Z,13.91
2022-10-31T10:29:43.293Z,13.86
2022-10-31T10:32:22.786Z,13.83
2022-10-31T10:34:55.374Z,13.84
2022-10-31T10:37:31.129Z,13.82
2022-10-31T10:40:22.723Z,13.84
2022-10-31T10:43:24.142Z,13.81
2022-10-31T10:46:18.478Z,13.80
2022-10-31T10:48:56.068Z,13.80
2022-10-31T10:52:19.249Z,13.81
2022-10-31T10:54:42.076Z,13.84
2022-10-31T10:57:23.060Z,13.83
2022-10-31T10:59:51.477Z,13.85
2022-10-31T11:02:31.322Z,13.83
2022-10-31T11:05:00.777Z,13.80
2022-10-31T11:07:38.225Z,13.80
2022-10-31T11:10:13.372Z,13.81
2022-10-31T11:12:40.440Z,13.82
2022-10-31T11:15:27.887Z,13.83
2022-10-31T11:17:56.375Z,13.82
2022-10-31T11:20:36.266Z,13.78
2022-10-31T11:23:21.678Z,13.79
2022-10-31T11:25:50.820Z,13.81
2022-10-31T11:28:17.376Z,13.82
2022-10-31T11:30:47.538Z,13.87
2022-10-31T11:33:18.824Z,13.87
2022-10-31T11:35:45.310Z,13.84
2022-10-31T11:38:18.556Z,13.79
2022-10-31T11:41:00.719Z,13.78
2022-10-31T11:43:27.820Z,13.84
2022-10-31T11:45:54.387Z,13.86
2022-10-31T11:48:24.388Z,13.89
2022-10-31T11:50:54.820Z,13.91
2022-10-31T11:53:28.548Z,13.93
2022-10-31T11:56:15.176Z,13.95
2022-10-31T11:58:42.036Z,13.93
2022-10-31T12:01:24.730Z,13.90
2022-10-31T12:04:14.044Z,13.92
2022-10-31T12:06:43.156Z,13.95
2022-10-31T12:09:33.180Z,13.94
2022-10-31T12:12:27.034Z,13.91
2022-10-31T12:15:27.955Z,13.91
2022-10-31T12:18:12.692Z,13.90
2022-10-31T12:21:06.826Z,13.95
2022-10-31T12:23:54.626Z,13.90
2022-10-31T12:26:42.419Z,13.85
2022-10-31T12:29:17.497Z,13.84
2022-10-31T12:32:04.444Z,13.86
2022-10-31T12:34:52.463Z,13.89
2022-10-31T12:37:37.633Z,13.86
2022-10-31T12:40:12.672Z,13.77
2022-10-31T12:43:14.503Z,13.80
2022-10-31T12:45:57.940Z,13.76
2022-10-31T12:48:27.191Z,13.76
2022-10-31T12:51:16.552Z,13.74
2022-10-31T12:53:54.420Z,13.74
2022-10-31T12:56:45.219Z,13.70
2022-10-31T12:59:34.228Z,13.68
2022-10-31T13:02:36.040Z,13.67
2022-10-31T13:05:06.332Z,13.71
2022-10-31T13:07:47.943Z,13.74
2022-10-31T13:10:23.129Z,13.77
2022-10-31T13:12:54.218Z,13.80
2022-10-31T13:15:25.522Z,13.75
2022-10-31T13:18:23.353Z,13.71
2022-10-31T13:20:54.790Z,13.78
2022-10-31T13:23:49.918Z,13.86
2022-10-31T13:29:24.716Z,14.00
2022-10-31T13:31:55.102Z,13.92
2022-10-31T13:34:34.848Z,13.82
2022-10-31T13:37:31.809Z,13.76
2022-10-31T13:40:39.282Z,13.72
2022-10-31T13:43:31.555Z,13.67
2022-10-31T13:45:59.180Z,13.66
2022-10-31T13:48:26.759Z,13.61
2022-10-31T13:51:00.836Z,13.59
2022-10-31T13:53:57.399Z,13.54
2022-10-31T13:56:31.569Z,13.52
2022-10-31T13:59:02.429Z,13.53
2022-10-31T14:01:32.376Z,13.54
2022-10-31T14:04:14.090Z,13.53
2022-10-31T14:06:52.249Z,13.53
2022-10-31T14:09:24.623Z,13.49
2022-10-31T14:11:53.205Z,13.42
2022-10-31T14:14:24.502Z,13.38
2022-10-31T14:16:58.659Z,13.31
2022-10-31T14:19:27.303Z,13.29
2022-10-31T14:21:55.014Z,13.31
2022-10-31T14:24:25.698Z,13.30
2022-10-31T14:26:58.538Z,13.29
2022-10-31T14:29:35.561Z,13.28
2022-10-31T14:32:28.456Z,13.27
2022-10-31T14:34:58.547Z,13.25
2022-10-31T14:37:35.045Z,13.32
2022-10-31T14:40:17.687Z,13.37
2022-10-31T14:42:57.171Z,13.42
2022-10-31T14:45:46.952Z,13.45
2022-10-31T14:48:36.289Z,13.49
2022-10-31T14:51:29.673Z,13.49
2022-10-31T14:53:58.493Z,13.47
2022-10-31T14:56:29.816Z,13.48
2022-10-31T14:59:02.138Z,13.48
2022-10-31T15:01:34.472Z,13.43
2022-10-31T15:07:21.680Z,13.34
2022-10-31T15:10:04.092Z,13.27
2022-10-31T15:12:34.553Z,13.26
2022-10-31T15:15:18.325Z,13.27
2022-10-31T15:17:53.994Z,13.32
2022-10-31T15:20:25.355Z,13.34
2022-10-31T15:22:55.692Z,13.40
2022-10-31T15:25:26.629Z,13.50
2022-10-31T15:27:54.416Z,13.57
2022-10-31T15:30:27.988Z,13.59
2022-10-31T15:32:58.615Z,13.52
2022-10-31T15:35:30.228Z,13.45
2022-10-31T15:38:00.548Z,13.43
2022-10-31T15:40:29.228Z,13.39
2022-10-31T15:43:02.882Z,13.36
2022-10-31T15:45:31.644Z,13.35
2022-10-31T15:48:12.530Z,13.33
2022-10-31T15:50:46.356Z,13.32
2022-10-31T15:53:36.207Z,13.39
2022-10-31T15:56:08.542Z,13.44
2022-10-31T15:58:45.060Z,13.45
2022-10-31T16:01:28.394Z,13.44
2022-10-31T16:04:02.208Z,13.53
2022-10-31T16:06:35.450Z,13.59
2022-10-31T16:09:05.409Z,13.58
2022-10-31T16:11:38.860Z,13.58
2022-10-31T16:14:07.124Z,13.63
2022-10-31T16:16:43.072Z,13.67
2022-10-31T16:19:22.452Z,13.74
2022-10-31T16:21:54.654Z,13.72
2022-10-31T16:24:32.781Z,13.61
2022-10-31T16:27:16.436Z,13.50
2022-10-31T16:29:46.921Z,13.37
2022-10-31T16:32:31.868Z,13.25
2022-10-31T16:35:00.392Z,13.18
2022-10-31T16:37:28.072Z,13.11
2022-10-31T16:39:55.726Z,13.08
2022-10-31T16:42:23.704Z,13.10
2022-10-31T16:44:51.438Z,13.13
2022-10-31T16:47:21.161Z,13.09
2022-10-31T16:49:51.111Z,13.06
2022-10-31T16:52:19.181Z,13.05
2022-10-31T16:54:46.983Z,13.04
2022-10-31T16:57:18.503Z,13.01
2022-10-31T16:59:52.296Z,13.02
2022-10-31T17:02:20.324Z,13.05
2022-10-31T17:04:50.809Z,13.12
2022-10-31T17:07:21.675Z,13.19
2022-10-31T17:09:49.271Z,13.26
2022-10-31T17:12:21.471Z,13.25
2022-10-31T17:14:52.371Z,13.24
2022-10-31T17:17:20.118Z,13.23
2022-10-31T17:19:47.823Z,13.23
2022-10-31T17:22:15.621Z,13.23
2022-10-31T17:24:43.777Z,13.23
2022-10-31T17:27:11.631Z,13.26
2022-10-31T17:29:39.392Z,13.31
2022-10-31T17:32:07.018Z,13.36
2022-10-31T17:34:34.677Z,13.42
2022-10-31T17:37:02.320Z,13.44
2022-10-31T17:39:30.026Z,13.51
2022-10-31T17:41:57.800Z,13.52
2022-10-31T17:44:25.475Z,13.49
2022-10-31T17:46:53.157Z,13.48
2022-10-31T17:49:21.783Z,13.50
2022-10-31T17:51:49.512Z,13.49
2022-10-31T17:54:18.932Z,13.49
2022-10-31T17:56:46.711Z,13.44
2022-10-31T17:59:14.562Z,13.41
2022-10-31T18:01:44.452Z,13.36
2022-10-31T18:04:12.411Z,13.33
2022-10-31T18:06:40.176Z,13.28
2022-10-31T18:09:07.994Z,13.21
2022-10-31T18:11:35.706Z,13.16
2022-10-31T18:14:03.536Z,13.16
2022-10-31T18:16:31.360Z,13.19
2022-10-31T18:19:01.935Z,13.24
2022-10-31T18:21:29.872Z,13.19
2022-10-31T18:23:59.555Z,13.14
2022-10-31T18:26:28.333Z,13.11
2022-10-31T18:28:56.090Z,13.15
2022-10-31T18:31:24.728Z,13.14
2022-10-31T18:33:54.703Z,13.16
2022-10-31T18:36:23.331Z,13.17
2022-10-31T18:38:51.078Z,13.23
2022-10-31T18:41:19.219Z,13.26
2022-10-31T18:43:48.175Z,13.28
2022-10-31T18:46:17.743Z,13.28
2022-10-31T18:48:46.466Z,13.35
2022-10-31T18:51:14.822Z,13.32
2022-10-31T18:53:42.566Z,13.25
2022-10-31T18:56:11.368Z,13.19
2022-10-31T18:58:39.221Z,13.16
2022-10-31T19:01:08.888Z,13.13
2022-10-31T19:03:37.370Z,13.12
2022-10-31T19:06:06.188Z,13.09
2022-10-31T19:08:34.336Z,13.12
2022-10-31T19:11:12.898Z,13.12
2022-10-31T19:13:41.849Z,13.08
2022-10-31T19:16:15.235Z,13.08
2022-10-31T19:18:44.017Z,13.04
2022-10-31T19:21:16.687Z,12.98
2022-10-31T19:23:45.375Z,12.97
2022-10-31T19:26:14.204Z,13.01
2022-10-31T19:28:42.046Z,13.04
2022-10-31T19:31:10.888Z,13.09
2022-10-31T19:33:39.155Z,13.15
2022-10-31T19:36:12.159Z,13.17
2022-10-31T19:38:42.322Z,13.19
2022-10-31T19:41:13.311Z,13.25
2022-10-31T19:43:41.771Z,13.28
2022-10-31T19:46:22.125Z,13.32
2022-10-31T19:48:55.594Z,13.38
2022-10-31T19:51:23.438Z,13.45
2022-10-31T19:53:52.263Z,13.52
2022-10-31T19:56:22.784Z,13.52
2022-10-31T19:58:50.430Z,13.55
2022-10-31T20:01:23.423Z,13.56
2022-10-31T20:03:51.752Z,13.56
2022-10-31T20:06:30.717Z,13.55
2022-10-31T20:08:59.641Z,13.60
2022-10-31T20:11:28.672Z,13.62
2022-10-31T20:13:58.284Z,13.63
2022-10-31T20:16:27.350Z,13.64
2022-10-31T20:18:56.143Z,13.61
2022-10-31T20:21:26.450Z,13.58
2022-10-31T20:24:02.320Z,13.54
2022-10-31T20:26:31.625Z,13.50
2022-10-31T20:29:01.060Z,13.48
2022-10-31T20:31:32.066Z,13.42
2022-10-31T20:34:00.151Z,13.41
2022-10-31T20:36:29.577Z,13.43
2022-10-31T20:38:58.572Z,13.41
2022-10-31T20:41:26.879Z,13.34
2022-10-31T20:43:54.790Z,13.25
2022-10-31T20:46:25.544Z,13.21
2022-10-31T20:48:54.199Z,13.16
2022-10-31T20:51:25.066Z,13.23
2022-10-31T20:53:54.028Z,13.31
2022-10-31T20:56:23.456Z,13.27
2022-10-31T20:58:52.035Z,13.21
2022-10-31T21:01:21.991Z,13.22
2022-10-31T21:03:50.711Z,13.23
2022-10-31T21:06:20.186Z,13.21
2022-10-31T21:08:47.829Z,13.21
2022-10-31T21:11:18.123Z,13.19
2022-10-31T21:13:47.667Z,13.12
2022-10-31T21:16:18.085Z,13.06
2022-10-31T21:18:47.058Z,13.06
2022-10-31T21:21:18.148Z,13.09
2022-10-31T21:23:47.025Z,13.14
2022-10-31T21:26:23.382Z,13.15
2022-10-31T21:28:53.955Z,13.12
2022-10-31T21:31:21.875Z,13.15
2022-10-31T21:33:50.083Z,13.17
2022-10-31T21:36:17.722Z,13.19
2022-10-31T21:38:50.080Z,13.11
2022-10-31T21:41:18.754Z,13.00
2022-10-31T21:43:48.192Z,12.90
2022-10-31T21:46:17.803Z,12.82
2022-10-31T21:48:45.949Z,12.74
2022-10-31T21:51:22.304Z,12.78
2022-10-31T21:54:09.691Z,12.77
2022-10-31T21:56:37.917Z,12.70
2022-10-31T21:59:06.557Z,12.69
2022-10-31T22:01:35.820Z,12.68
2022-10-31T22:04:04.267Z,12.62
2022-10-31T22:06:32.237Z,12.52
2022-10-31T22:09:03.518Z,12.50
2022-10-31T22:11:31.571Z,12.52
2022-10-31T22:14:00.595Z,12.53
2022-10-31T22:16:30.307Z,12.49
2022-10-31T22:18:59.953Z,12.48
2022-10-31T22:21:28.743Z,12.54
2022-10-31T22:24:01.864Z,12.60
2022-10-31T22:26:33.186Z,12.64
2022-10-31T22:29:03.963Z,12.65
2022-10-31T22:31:33.615Z,12.58
2022-10-31T22:34:01.569Z,12.58
2022-10-31T22:36:30.851Z,12.65
2022-10-31T22:38:58.951Z,12.73
2022-10-31T22:41:30.727Z,12.79
2022-10-31T22:43:59.179Z,12.80
2022-10-31T22:46:29.921Z,12.83
2022-10-31T22:49:01.315Z,12.86
2022-10-31T22:51:38.259Z,12.84
2022-10-31T22:54:09.918Z,12.79
2022-10-31T22:56:38.329Z,12.72
2022-10-31T22:59:06.431Z,12.56
2022-10-31T23:01:35.011Z,12.42
2022-10-31T23:04:03.157Z,12.31
2022-10-31T23:06:32.699Z,12.27
2022-10-31T23:09:02.181Z,12.24
2022-10-31T23:11:33.279Z,12.20
2022-10-31T23:14:09.578Z,12.29
2022-10-31T23:16:40.303Z,12.39
2022-10-31T23:19:09.354Z,12.41
2022-10-31T23:21:57.521Z,12.34
2022-10-31T23:24:25.408Z,12.27
2022-10-31T23:27:07.704Z,12.31
2022-10-31T23:29:45.543Z,12.33
2022-10-31T23:32:19.158Z,12.40
2022-10-31T23:34:49.474Z,12.45
2022-10-31T23:37:19.326Z,12.49
2022-10-31T23:39:47.786Z,12.51
2022-10-31T23:42:16.027Z,12.51
2022-10-31T23:44:43.697Z,12.52
2022-10-31T23:47:11.908Z,12.59
2022-10-31T23:49:39.659Z,12.59
2022-10-31T23:52:07.975Z,12.55
2022-10-31T23:54:35.768Z,12.49
2022-10-31T23:57:04.025Z,12.42
2022-10-31T23:59:32.851Z,12.41
